createdAt,value
2019-05-10T00:00:31.003Z,19.35
2019-05-10T00:01:22.404Z,18.12
2019-05-10T00:03:04.759Z,19.27
2019-05-10T00:03:56.109Z,19.07
2019-05-10T00:05:39.059Z,20.97
2019-05-10T00:06:30.375Z,20.05
2019-05-10T00:07:21.979Z,19.35
2019-05-10T00:08:13.064Z,15.48
2019-05-10T00:08:45.846Z,21.50
2019-05-10T00:09:18.536Z,20.40
2019-05-10T00:09:51.270Z,18.90
2019-05-10T00:10:24.020Z,20.77
2019-05-10T00:11:08.020Z,20.92
2019-05-10T00:11:49.114Z,19.12
2019-05-10T00:12:22.610Z,21.40
2019-05-10T00:13:06.593Z,21.40
2019-05-10T00:13:44.328Z,19.45
2019-05-10T00:14:31.046Z,21.20
2019-05-10T00:15:06.595Z,20.20
2019-05-10T00:15:40.224Z,20.27
2019-05-10T00:16:13.919Z,20.20
2019-05-10T00:16:48.504Z,21.35
2019-05-10T00:17:22.176Z,19.80
2019-05-10T00:17:56.258Z,21.35
2019-05-10T00:18:29.849Z,19.37
2019-05-10T00:19:03.272Z,22.05
2019-05-10T00:19:36.869Z,19.95
2019-05-10T00:20:10.471Z,18.27
2019-05-10T00:20:44.076Z,19.57
2019-05-10T00:21:17.513Z,19.25
2019-05-10T00:21:51.135Z,23.95
2019-05-10T00:22:24.756Z,24.77
2019-05-10T00:22:58.341Z,23.20
2019-05-10T00:23:31.757Z,21.07
2019-05-10T00:24:05.362Z,22.98
2019-05-10T00:24:39.026Z,21.77
2019-05-10T00:25:12.623Z,22.67
2019-05-10T00:25:46.039Z,21.23
2019-05-10T00:26:19.630Z,22.82
2019-05-10T00:26:53.251Z,21.25
2019-05-10T00:27:26.881Z,22.00
2019-05-10T00:28:00.289Z,23.47
2019-05-10T00:28:33.889Z,21.57
2019-05-10T00:29:07.489Z,20.75
2019-05-10T00:29:41.087Z,23.00
2019-05-10T00:30:14.511Z,21.50
2019-05-10T00:30:48.120Z,23.80
2019-05-10T00:31:21.717Z,20.35
2019-05-10T00:31:55.317Z,20.25
2019-05-10T00:32:28.758Z,20.77
2019-05-10T00:33:02.371Z,19.17
2019-05-10T00:33:35.977Z,22.67
2019-05-10T00:34:09.578Z,19.90
2019-05-10T00:34:43.005Z,23.45
2019-05-10T00:35:16.579Z,20.08
2019-05-10T00:35:50.185Z,20.95
2019-05-10T00:36:23.813Z,20.23
2019-05-10T00:36:57.201Z,20.68
2019-05-10T00:37:30.819Z,21.02
2019-05-10T00:38:04.442Z,24.47
2019-05-10T00:38:38.059Z,22.40
2019-05-10T00:39:11.477Z,23.90
2019-05-10T00:39:45.098Z,19.92
2019-05-10T00:40:18.691Z,22.25
2019-05-10T00:40:52.287Z,21.35
2019-05-10T00:41:25.701Z,22.80
2019-05-10T00:41:59.296Z,19.45
2019-05-10T00:42:32.905Z,20.55
2019-05-10T00:43:06.502Z,20.80
2019-05-10T00:43:39.944Z,21.37
2019-05-10T00:44:13.562Z,21.40
2019-05-10T00:44:47.169Z,21.45
2019-05-10T00:45:20.779Z,21.93
2019-05-10T00:45:54.194Z,21.10
2019-05-10T00:46:27.797Z,19.90
2019-05-10T00:47:01.400Z,19.50
2019-05-10T00:47:35.002Z,23.80
2019-05-10T00:48:08.416Z,22.87
2019-05-10T00:48:42.008Z,24.35
2019-05-10T00:49:15.633Z,20.43
2019-05-10T00:49:49.265Z,20.40
2019-05-10T00:50:22.683Z,21.60
2019-05-10T00:50:56.283Z,20.65
2019-05-10T00:51:29.889Z,23.32
2019-05-10T00:52:03.559Z,22.25
2019-05-10T00:52:36.976Z,20.80
2019-05-10T00:53:10.578Z,22.95
2019-05-10T00:53:44.217Z,20.82
2019-05-10T00:54:17.806Z,21.75
2019-05-10T00:54:51.250Z,24.02
2019-05-10T00:55:24.860Z,24.10
2019-05-10T00:55:58.466Z,22.17
2019-05-10T00:56:32.065Z,21.50
2019-05-10T00:57:05.491Z,20.50
2019-05-10T00:57:39.083Z,22.55
2019-05-10T00:58:12.687Z,21.05
2019-05-10T00:58:46.353Z,22.40
2019-05-10T00:59:19.768Z,22.42
2019-05-10T00:59:53.367Z,22.65
2019-05-10T01:00:26.989Z,22.50
2019-05-10T01:01:00.616Z,24.12
2019-05-10T01:01:34.024Z,21.77
2019-05-10T01:02:07.632Z,22.25
2019-05-10T01:02:41.223Z,23.73
2019-05-10T01:03:14.827Z,20.68
2019-05-10T01:03:48.238Z,21.55
2019-05-10T01:04:21.839Z,20.17
2019-05-10T01:04:55.504Z,21.62
2019-05-10T01:05:29.103Z,24.63
2019-05-10T01:06:02.592Z,25.50
2019-05-10T01:06:36.301Z,21.30
2019-05-10T01:07:09.900Z,22.77
2019-05-10T01:07:43.500Z,20.23
2019-05-10T01:08:16.914Z,26.42
2019-05-10T01:08:50.515Z,27.22
2019-05-10T01:09:24.115Z,23.15
2019-05-10T01:09:57.718Z,21.45
2019-05-10T01:10:31.139Z,21.85
2019-05-10T01:11:04.737Z,25.57
2019-05-10T01:11:38.363Z,21.27
2019-05-10T01:12:11.995Z,24.18
2019-05-10T01:12:45.406Z,21.25
2019-05-10T01:13:19.005Z,21.77
2019-05-10T01:13:52.597Z,23.22
2019-05-10T01:14:26.207Z,22.70
2019-05-10T01:14:59.625Z,24.45
2019-05-10T01:15:33.241Z,23.30
2019-05-10T01:16:06.839Z,22.35
2019-05-10T01:16:40.440Z,25.27
2019-05-10T01:17:13.872Z,21.40
2019-05-10T01:17:47.564Z,23.92
2019-05-10T01:18:21.159Z,21.05
2019-05-10T01:18:54.760Z,22.70
2019-05-10T01:19:28.176Z,20.88
2019-05-10T01:20:02.020Z,23.95
2019-05-10T01:20:35.816Z,21.37
2019-05-10T01:21:09.416Z,20.20
2019-05-10T01:21:42.836Z,23.57
2019-05-10T01:22:16.432Z,24.55
2019-05-10T01:22:50.060Z,22.67
2019-05-10T01:23:23.675Z,23.20
2019-05-10T01:23:57.086Z,22.30
2019-05-10T01:24:30.695Z,24.80
2019-05-10T01:25:05.825Z,21.87
2019-05-10T01:25:39.428Z,23.32
2019-05-10T01:26:12.841Z,21.02
2019-05-10T01:26:46.480Z,21.62
2019-05-10T01:27:20.087Z,23.15
2019-05-10T01:27:53.676Z,22.45
2019-05-10T01:28:27.120Z,22.37
2019-05-10T01:29:00.936Z,22.60
2019-05-10T01:29:34.543Z,22.45
2019-05-10T01:30:08.139Z,22.40
2019-05-10T01:30:41.618Z,23.18
2019-05-10T01:31:15.290Z,26.55
2019-05-10T01:31:48.885Z,21.05
2019-05-10T01:32:22.568Z,22.58
2019-05-10T01:32:56.049Z,24.90
2019-05-10T01:33:29.647Z,22.35
2019-05-10T01:34:03.270Z,23.87
2019-05-10T01:34:36.887Z,23.27
2019-05-10T01:35:10.306Z,20.27
2019-05-10T01:35:43.905Z,22.95
2019-05-10T01:36:17.504Z,26.90
2019-05-10T01:36:51.106Z,22.48
2019-05-10T01:37:24.533Z,25.40
2019-05-10T01:37:58.133Z,26.02
2019-05-10T01:38:31.732Z,22.85
2019-05-10T01:39:05.795Z,23.22
2019-05-10T01:39:39.242Z,23.62
2019-05-10T01:40:12.856Z,22.85
2019-05-10T01:40:46.458Z,23.47
2019-05-10T01:41:20.060Z,23.15
2019-05-10T01:41:53.473Z,22.95
2019-05-10T01:42:27.069Z,21.68
2019-05-10T01:43:00.674Z,25.15
2019-05-10T01:43:34.281Z,22.98
2019-05-10T01:44:07.698Z,22.50
2019-05-10T01:44:41.296Z,23.62
2019-05-10T01:45:14.912Z,21.77
2019-05-10T01:45:48.622Z,23.20
2019-05-10T01:46:22.030Z,21.73
2019-05-10T01:46:55.627Z,22.67
2019-05-10T01:47:29.223Z,23.38
2019-05-10T01:48:02.831Z,22.13
2019-05-10T01:48:36.253Z,21.27
2019-05-10T01:49:09.850Z,22.42
2019-05-10T01:49:43.448Z,23.95
2019-05-10T01:50:17.048Z,22.40
2019-05-10T01:50:50.491Z,24.77
2019-05-10T01:51:27.628Z,25.08
2019-05-10T01:51:59.381Z,22.30
2019-05-10T01:52:32.981Z,20.62
2019-05-10T01:53:06.396Z,26.07
2019-05-10T01:53:39.993Z,21.97
2019-05-10T01:54:13.599Z,21.07
2019-05-10T01:54:47.201Z,23.40
2019-05-10T01:55:20.713Z,23.30
2019-05-10T01:55:54.323Z,22.13
2019-05-10T01:56:27.949Z,22.30
2019-05-10T01:57:01.574Z,23.77
2019-05-10T01:57:34.988Z,21.30
2019-05-10T01:58:08.588Z,22.17
2019-05-10T01:58:42.187Z,25.05
2019-05-10T01:59:15.790Z,21.27
2019-05-10T01:59:49.201Z,22.65
2019-05-10T02:00:22.869Z,23.65
2019-05-10T02:00:56.471Z,24.12
2019-05-10T02:01:30.071Z,22.95
2019-05-10T02:02:03.526Z,22.77
2019-05-10T02:02:37.158Z,22.98
2019-05-10T02:03:10.760Z,22.30
2019-05-10T02:03:44.364Z,22.30
2019-05-10T02:04:18.104Z,23.95
2019-05-10T02:04:51.989Z,25.62
2019-05-10T02:05:25.591Z,24.72
2019-05-10T02:05:59.195Z,24.63
2019-05-10T02:06:32.613Z,27.67
2019-05-10T02:07:06.285Z,24.10
2019-05-10T02:07:39.900Z,24.55
2019-05-10T02:08:13.526Z,24.47
2019-05-10T02:08:46.944Z,24.02
2019-05-10T02:09:20.543Z,23.98
2019-05-10T02:09:54.155Z,27.00
2019-05-10T02:10:27.771Z,27.98
2019-05-10T02:11:01.319Z,26.05
2019-05-10T02:11:34.917Z,25.72
2019-05-10T02:12:08.519Z,25.97
2019-05-10T02:12:42.120Z,27.58
2019-05-10T02:13:15.557Z,26.07
2019-05-10T02:13:49.177Z,26.97
2019-05-10T02:14:22.854Z,24.85
2019-05-10T02:14:56.454Z,25.62
2019-05-10T02:15:29.877Z,24.18
2019-05-10T02:16:03.475Z,27.75
2019-05-10T02:16:37.076Z,27.40
2019-05-10T02:17:10.669Z,26.50
2019-05-10T02:17:44.081Z,25.55
2019-05-10T02:18:17.689Z,26.95
2019-05-10T02:18:51.322Z,27.55
2019-05-10T02:19:24.937Z,25.45
2019-05-10T02:19:58.347Z,29.98
2019-05-10T02:20:31.956Z,28.32
2019-05-10T02:21:05.543Z,26.85
2019-05-10T02:21:39.151Z,28.25
2019-05-10T02:22:13.135Z,28.77
2019-05-10T02:22:46.735Z,29.00
2019-05-10T02:23:20.326Z,29.18
2019-05-10T02:23:53.930Z,27.17
2019-05-10T02:24:27.368Z,29.65
2019-05-10T02:25:00.991Z,24.87
2019-05-10T02:25:34.591Z,25.50
2019-05-10T02:26:09.787Z,28.32
2019-05-10T02:26:43.260Z,29.10
2019-05-10T02:27:16.883Z,26.52
2019-05-10T02:27:50.483Z,26.90
2019-05-10T02:28:24.081Z,27.37
2019-05-10T02:28:57.486Z,25.75
2019-05-10T02:29:31.096Z,28.02
2019-05-10T02:30:06.975Z,30.92
2019-05-10T02:30:40.599Z,29.70
2019-05-10T02:31:14.019Z,25.37
2019-05-10T02:31:47.612Z,28.10
2019-05-10T02:32:21.218Z,29.20
2019-05-10T02:32:54.822Z,26.87
2019-05-10T02:33:28.307Z,26.82
2019-05-10T02:34:01.913Z,28.98
2019-05-10T02:34:35.530Z,29.70
2019-05-10T02:35:09.116Z,31.27
2019-05-10T02:35:42.550Z,31.35
2019-05-10T02:36:16.181Z,27.35
2019-05-10T02:36:49.783Z,29.25
2019-05-10T02:37:23.379Z,26.02
2019-05-10T02:37:56.792Z,30.08
2019-05-10T02:38:30.401Z,29.90
2019-05-10T02:39:05.922Z,29.57
2019-05-10T02:39:39.526Z,26.62
2019-05-10T02:40:12.936Z,27.30
2019-05-10T02:40:46.535Z,25.95
2019-05-10T02:41:20.242Z,29.60
2019-05-10T02:41:53.877Z,27.07
2019-05-10T02:42:27.302Z,27.82
2019-05-10T02:43:00.900Z,27.55
2019-05-10T02:43:34.497Z,27.90
2019-05-10T02:44:08.103Z,28.27
2019-05-10T02:44:41.511Z,28.40
2019-05-10T02:45:15.185Z,29.92
2019-05-10T02:45:48.782Z,26.93
2019-05-10T02:46:22.392Z,30.57
2019-05-10T02:46:55.833Z,29.37
2019-05-10T02:47:29.452Z,29.60
2019-05-10T02:48:03.058Z,29.15
2019-05-10T02:48:36.657Z,29.40
2019-05-10T02:49:10.067Z,31.12
2019-05-10T02:49:43.680Z,31.25
2019-05-10T02:50:17.275Z,29.92
2019-05-10T02:50:50.880Z,31.80
2019-05-10T02:51:24.305Z,27.87
2019-05-10T02:51:57.899Z,28.67
2019-05-10T02:52:31.521Z,38.33
2019-05-10T02:53:05.147Z,29.30
2019-05-10T02:53:38.559Z,27.48
2019-05-10T02:54:12.157Z,31.00
2019-05-10T02:54:45.764Z,30.95
2019-05-10T02:55:19.356Z,30.85
2019-05-10T02:55:52.780Z,26.60
2019-05-10T02:56:31.312Z,30.52
2019-05-10T02:57:01.792Z,31.07
2019-05-10T02:57:36.807Z,30.80
2019-05-10T02:58:14.883Z,34.58
2019-05-10T02:58:45.502Z,32.00
2019-05-10T02:59:19.111Z,30.75
2019-05-10T02:59:52.706Z,34.27
2019-05-10T03:00:26.123Z,28.00
2019-05-10T03:01:01.293Z,34.38
2019-05-10T03:01:34.900Z,30.77
2019-05-10T03:02:08.500Z,32.45
2019-05-10T03:02:42.551Z,29.42
2019-05-10T03:03:16.171Z,30.35
2019-05-10T03:03:49.798Z,34.70
2019-05-10T03:04:23.490Z,31.50
2019-05-10T03:04:56.908Z,30.52
2019-05-10T03:05:30.493Z,31.10
2019-05-10T03:06:04.588Z,29.77
2019-05-10T03:06:38.184Z,29.25
2019-05-10T03:07:11.593Z,28.47
2019-05-10T03:07:45.190Z,31.82
2019-05-10T03:08:18.792Z,30.85
2019-05-10T03:08:52.463Z,30.15
2019-05-10T03:09:28.300Z,31.05
2019-05-10T03:10:01.917Z,32.85
2019-05-10T03:10:35.516Z,33.60
2019-05-10T03:11:09.117Z,31.40
2019-05-10T03:11:46.593Z,30.37
2019-05-10T03:12:25.747Z,32.45
2019-05-10T03:12:59.877Z,29.40
2019-05-10T03:13:33.472Z,32.50
2019-05-10T03:14:11.503Z,33.48
2019-05-10T03:14:45.123Z,29.63
2019-05-10T03:15:18.752Z,33.05
2019-05-10T03:15:52.713Z,31.42
2019-05-10T03:16:26.134Z,31.30
2019-05-10T03:16:59.730Z,30.10
2019-05-10T03:17:33.341Z,31.27
2019-05-10T03:18:06.949Z,31.80
2019-05-10T03:18:40.371Z,31.57
2019-05-10T03:19:13.976Z,36.03
2019-05-10T03:19:49.016Z,34.15
2019-05-10T03:20:22.638Z,32.85
2019-05-10T03:20:59.477Z,30.05
2019-05-10T03:21:33.080Z,34.13
2019-05-10T03:22:06.685Z,33.45
2019-05-10T03:22:43.317Z,30.77
2019-05-10T03:23:16.779Z,33.45
2019-05-10T03:23:50.381Z,27.95
2019-05-10T03:24:27.716Z,32.35
2019-05-10T03:24:59.310Z,31.17
2019-05-10T03:25:32.740Z,30.82
2019-05-10T03:26:06.358Z,28.07
2019-05-10T03:26:50.212Z,31.68
2019-05-10T03:27:15.232Z,30.48
2019-05-10T03:27:48.695Z,28.75
2019-05-10T03:28:22.258Z,33.40
2019-05-10T03:28:55.848Z,30.12
2019-05-10T03:29:29.465Z,31.17
2019-05-10T03:30:03.088Z,33.13
2019-05-10T03:30:37.005Z,35.40
2019-05-10T03:31:10.610Z,29.75
2019-05-10T03:31:44.228Z,29.50
2019-05-10T03:32:17.673Z,34.05
2019-05-10T03:32:51.265Z,31.75
2019-05-10T03:33:24.865Z,31.07
2019-05-10T03:33:58.465Z,30.88
2019-05-10T03:34:31.895Z,35.98
2019-05-10T03:35:07.041Z,33.18
2019-05-10T03:35:40.626Z,32.23
2019-05-10T03:36:14.225Z,34.25
2019-05-10T03:36:47.647Z,29.92
2019-05-10T03:37:21.275Z,29.15
2019-05-10T03:37:54.892Z,34.90
2019-05-10T03:38:28.503Z,33.05
2019-05-10T03:39:01.920Z,33.63
2019-05-10T03:39:35.625Z,33.83
2019-05-10T03:40:09.229Z,31.70
2019-05-10T03:40:42.822Z,31.65
2019-05-10T03:41:16.247Z,32.33
2019-05-10T03:41:49.841Z,33.83
2019-05-10T03:42:23.445Z,32.85
2019-05-10T03:42:57.081Z,33.23
2019-05-10T03:43:30.518Z,31.35
2019-05-10T03:44:04.128Z,30.27
2019-05-10T03:44:37.726Z,33.28
2019-05-10T03:45:11.324Z,39.75
2019-05-10T03:45:44.735Z,35.43
2019-05-10T03:46:18.339Z,33.23
2019-05-10T03:46:51.943Z,36.38
2019-05-10T03:47:25.542Z,32.35
2019-05-10T03:47:58.947Z,34.70
2019-05-10T03:48:32.564Z,30.45
2019-05-10T03:49:06.191Z,33.98
2019-05-10T03:49:39.788Z,34.00
2019-05-10T03:50:13.213Z,31.07
2019-05-10T03:50:46.813Z,33.42
2019-05-10T03:51:20.414Z,28.55
2019-05-10T03:51:54.009Z,32.73
2019-05-10T03:52:27.424Z,33.28
2019-05-10T03:53:01.032Z,33.75
2019-05-10T03:53:34.634Z,32.90
2019-05-10T03:54:08.257Z,36.25
2019-05-10T03:54:41.684Z,32.17
2019-05-10T03:55:15.293Z,29.85
2019-05-10T03:55:48.893Z,33.48
2019-05-10T03:56:22.498Z,34.75
2019-05-10T03:57:11.839Z,34.73
2019-05-10T03:57:31.155Z,32.78
2019-05-10T03:58:04.751Z,33.00
2019-05-10T03:58:38.357Z,32.83
2019-05-10T03:59:11.782Z,33.53
2019-05-10T03:59:45.474Z,32.60
2019-05-10T04:00:19.093Z,32.08
2019-05-10T04:00:52.895Z,32.67
2019-05-10T04:01:26.305Z,30.23
2019-05-10T04:01:59.908Z,35.00
2019-05-10T04:02:33.601Z,30.65
2019-05-10T04:03:07.200Z,31.93
2019-05-10T04:03:40.624Z,27.90
2019-05-10T04:04:14.226Z,33.63
2019-05-10T04:04:47.831Z,33.45
2019-05-10T04:05:21.446Z,31.65
2019-05-10T04:05:54.947Z,29.80
2019-05-10T04:06:28.521Z,33.90
2019-05-10T04:07:02.128Z,32.53
2019-05-10T04:07:35.721Z,31.27
2019-05-10T04:08:09.144Z,31.23
2019-05-10T04:08:42.738Z,31.80
2019-05-10T04:09:16.337Z,29.80
2019-05-10T04:09:49.930Z,29.45
2019-05-10T04:10:23.349Z,29.87
2019-05-10T04:10:56.958Z,31.35
2019-05-10T04:11:30.584Z,31.37
2019-05-10T04:12:04.191Z,31.68
2019-05-10T04:12:37.616Z,37.80
2019-05-10T04:13:11.202Z,33.33
2019-05-10T04:13:44.802Z,29.80
2019-05-10T04:14:18.402Z,29.55
2019-05-10T04:14:51.812Z,30.80
2019-05-10T04:15:25.426Z,32.70
2019-05-10T04:15:59.024Z,34.27
2019-05-10T04:16:32.642Z,31.50
2019-05-10T04:17:06.082Z,32.63
2019-05-10T04:17:39.685Z,31.37
2019-05-10T04:18:13.275Z,31.02
2019-05-10T04:18:46.879Z,31.95
2019-05-10T04:19:20.295Z,29.50
2019-05-10T04:19:53.899Z,31.45
2019-05-10T04:20:27.491Z,32.75
2019-05-10T04:21:01.091Z,31.00
2019-05-10T04:21:34.507Z,30.57
2019-05-10T04:22:08.130Z,32.90
2019-05-10T04:22:41.752Z,32.13
2019-05-10T04:23:15.839Z,34.10
2019-05-10T04:23:49.242Z,31.27
2019-05-10T04:24:22.845Z,31.40
2019-05-10T04:24:56.513Z,30.80
2019-05-10T04:25:30.130Z,30.12
2019-05-10T04:26:03.543Z,31.62
2019-05-10T04:26:37.138Z,31.70
2019-05-10T04:27:29.516Z,31.35
2019-05-10T04:27:46.010Z,30.60
2019-05-10T04:28:19.440Z,29.80
2019-05-10T04:28:53.037Z,29.63
2019-05-10T04:29:26.631Z,29.30
2019-05-10T04:30:00.240Z,31.75
2019-05-10T04:30:33.661Z,30.20
2019-05-10T04:31:07.256Z,28.80
2019-05-10T04:31:40.866Z,35.73
2019-05-10T04:32:14.460Z,30.68
2019-05-10T04:32:47.995Z,31.68
2019-05-10T04:33:21.593Z,31.25
2019-05-10T04:33:55.263Z,32.13
2019-05-10T04:34:28.814Z,32.20
2019-05-10T04:35:02.228Z,30.68
2019-05-10T04:35:35.925Z,30.05
2019-05-10T04:36:12.532Z,31.37
2019-05-10T04:36:44.793Z,29.48
2019-05-10T04:37:18.209Z,29.48
2019-05-10T04:37:51.811Z,29.35
2019-05-10T04:38:25.412Z,31.40
2019-05-10T04:38:59.038Z,27.82
2019-05-10T04:39:32.471Z,30.75
2019-05-10T04:40:07.874Z,33.18
2019-05-10T04:40:41.477Z,28.07
2019-05-10T04:41:15.084Z,30.68
2019-05-10T04:41:48.501Z,32.17
2019-05-10T04:42:22.104Z,27.50
2019-05-10T04:42:55.720Z,29.30
2019-05-10T04:43:29.322Z,25.97
2019-05-10T04:44:02.742Z,27.62
2019-05-10T04:44:36.364Z,32.53
2019-05-10T04:45:09.992Z,28.20
2019-05-10T04:45:43.597Z,30.08
2019-05-10T04:46:17.015Z,31.57
2019-05-10T04:46:50.618Z,27.60
2019-05-10T04:47:24.222Z,28.32
2019-05-10T04:47:57.835Z,30.65
2019-05-10T04:48:31.240Z,29.00
2019-05-10T04:49:04.866Z,30.43
2019-05-10T04:49:38.442Z,28.87
2019-05-10T04:50:12.062Z,29.85
2019-05-10T04:50:49.074Z,32.30
2019-05-10T04:51:20.749Z,28.00
2019-05-10T04:51:54.350Z,29.42
2019-05-10T04:52:27.954Z,32.73
2019-05-10T04:53:01.374Z,29.32
2019-05-10T04:53:34.960Z,31.55
2019-05-10T04:54:08.572Z,30.32
2019-05-10T04:54:42.170Z,31.37
2019-05-10T04:55:15.587Z,31.68
2019-05-10T04:55:49.211Z,31.65
2019-05-10T04:56:22.843Z,30.60
2019-05-10T04:56:59.940Z,33.08
2019-05-10T04:57:47.987Z,30.23
2019-05-10T04:58:06.748Z,28.47
2019-05-10T04:58:40.353Z,30.30
2019-05-10T04:59:13.960Z,32.05
2019-05-10T04:59:47.377Z,29.95
2019-05-10T05:00:20.974Z,29.48
2019-05-10T05:00:54.579Z,32.67
2019-05-10T05:01:28.309Z,33.83
2019-05-10T05:02:01.765Z,30.57
2019-05-10T05:02:35.372Z,31.82
2019-05-10T05:03:08.975Z,34.60
2019-05-10T05:03:42.591Z,30.48
2019-05-10T05:04:16.006Z,30.02
2019-05-10T05:04:50.375Z,34.00
2019-05-10T05:05:24.054Z,34.00
2019-05-10T05:05:57.639Z,32.35
2019-05-10T05:06:31.060Z,30.32
2019-05-10T05:07:04.674Z,31.55
2019-05-10T05:07:38.297Z,28.98
2019-05-10T05:08:12.170Z,34.58
2019-05-10T05:08:45.585Z,30.95
2019-05-10T05:09:19.175Z,33.13
2019-05-10T05:09:52.779Z,30.55
2019-05-10T05:10:26.375Z,32.80
2019-05-10T05:10:59.808Z,34.18
2019-05-10T05:11:33.408Z,33.23
2019-05-10T05:12:07.022Z,33.10
2019-05-10T05:12:40.650Z,30.45
2019-05-10T05:13:14.086Z,30.20
2019-05-10T05:13:47.688Z,32.93
2019-05-10T05:14:21.295Z,33.42
2019-05-10T05:14:54.896Z,32.15
2019-05-10T05:15:28.317Z,32.33
2019-05-10T05:16:01.924Z,31.87
2019-05-10T05:16:35.532Z,35.10
2019-05-10T05:17:09.145Z,31.85
2019-05-10T05:17:42.565Z,32.33
2019-05-10T05:18:16.184Z,30.40
2019-05-10T05:18:49.820Z,31.40
2019-05-10T05:19:23.424Z,31.00
2019-05-10T05:19:56.862Z,34.08
2019-05-10T05:20:30.451Z,32.28
2019-05-10T05:21:04.056Z,35.30
2019-05-10T05:21:37.659Z,33.40
2019-05-10T05:22:11.084Z,32.85
2019-05-10T05:22:44.864Z,32.35
2019-05-10T05:23:18.657Z,31.62
2019-05-10T05:23:52.462Z,32.30
2019-05-10T05:24:25.908Z,32.58
2019-05-10T05:25:01.145Z,31.87
2019-05-10T05:25:40.125Z,32.80
2019-05-10T05:26:10.732Z,32.78
2019-05-10T05:26:44.160Z,37.40
2019-05-10T05:27:17.950Z,34.40
2019-05-10T05:28:06.657Z,32.98
2019-05-10T05:28:27.168Z,36.25
2019-05-10T05:29:00.584Z,34.23
2019-05-10T05:29:34.498Z,36.17
2019-05-10T05:30:09.041Z,33.95
2019-05-10T05:30:42.828Z,33.55
2019-05-10T05:31:16.261Z,33.60
2019-05-10T05:31:53.977Z,31.65
2019-05-10T05:32:25.542Z,30.12
2019-05-10T05:32:59.490Z,33.10
2019-05-10T05:33:32.895Z,37.30
2019-05-10T05:34:06.776Z,34.60
2019-05-10T05:34:40.573Z,33.58
2019-05-10T05:35:15.509Z,35.65
2019-05-10T05:35:49.223Z,32.23
2019-05-10T05:36:23.061Z,33.63
2019-05-10T05:36:56.857Z,34.08
2019-05-10T05:37:30.643Z,38.30
2019-05-10T05:38:04.069Z,34.27
2019-05-10T05:38:40.346Z,34.35
2019-05-10T05:39:13.298Z,33.40
2019-05-10T05:39:47.094Z,32.45
2019-05-10T05:40:20.508Z,31.73
2019-05-10T05:40:54.345Z,29.45
2019-05-10T05:41:31.722Z,33.50
2019-05-10T05:42:04.073Z,33.15
2019-05-10T05:42:37.493Z,33.02
2019-05-10T05:43:11.278Z,37.70
2019-05-10T05:43:46.286Z,31.65
2019-05-10T05:44:25.916Z,33.28
2019-05-10T05:44:55.563Z,34.75
2019-05-10T05:45:33.940Z,34.45
2019-05-10T05:46:04.783Z,31.20
2019-05-10T05:46:38.588Z,34.35
2019-05-10T05:47:12.114Z,37.03
2019-05-10T05:47:45.902Z,35.63
2019-05-10T05:48:21.316Z,33.80
2019-05-10T05:48:55.126Z,33.33
2019-05-10T05:49:28.622Z,32.58
2019-05-10T05:50:02.479Z,32.88
2019-05-10T05:50:36.199Z,32.93
2019-05-10T05:51:10.063Z,33.28
2019-05-10T05:51:43.480Z,34.70
2019-05-10T05:52:17.287Z,34.75
2019-05-10T05:52:51.105Z,31.85
2019-05-10T05:53:24.895Z,34.48
2019-05-10T05:53:58.358Z,32.50
2019-05-10T05:54:32.132Z,34.65
2019-05-10T05:55:07.620Z,35.33
2019-05-10T05:55:41.414Z,31.85
2019-05-10T05:56:14.928Z,35.28
2019-05-10T05:56:50.846Z,31.52
2019-05-10T05:57:27.663Z,32.83
2019-05-10T05:58:04.605Z,32.33
2019-05-10T05:58:37.991Z,33.18
2019-05-10T05:59:10.263Z,32.98
2019-05-10T05:59:44.055Z,32.20
2019-05-10T06:00:17.847Z,32.80
2019-05-10T06:00:51.272Z,37.58
2019-05-10T06:01:29.114Z,34.90
2019-05-10T06:02:07.220Z,35.43
2019-05-10T06:02:44.302Z,33.67
2019-05-10T06:03:11.073Z,33.13
2019-05-10T06:03:44.874Z,33.02
2019-05-10T06:04:18.675Z,30.35
2019-05-10T06:04:52.472Z,29.87
2019-05-10T06:05:33.958Z,31.97
2019-05-10T06:06:01.474Z,29.37
2019-05-10T06:06:35.324Z,30.45
2019-05-10T06:07:09.112Z,33.67
2019-05-10T06:07:42.530Z,34.43
2019-05-10T06:08:22.516Z,32.67
2019-05-10T06:08:54.682Z,31.70
2019-05-10T06:09:31.938Z,32.45
2019-05-10T06:10:02.302Z,32.50
2019-05-10T06:10:36.097Z,33.23
2019-05-10T06:11:09.975Z,31.70
2019-05-10T06:11:43.764Z,33.53
2019-05-10T06:12:17.196Z,36.58
2019-05-10T06:12:52.909Z,34.50
2019-05-10T06:13:30.498Z,30.48
2019-05-10T06:14:03.630Z,31.73
2019-05-10T06:14:36.918Z,30.80
2019-05-10T06:15:10.735Z,30.88
2019-05-10T06:15:44.539Z,33.55
2019-05-10T06:16:18.324Z,32.35
2019-05-10T06:16:53.121Z,35.43
2019-05-10T06:17:29.418Z,33.85
2019-05-10T06:18:03.471Z,28.60
2019-05-10T06:18:41.776Z,27.95
2019-05-10T06:19:13.076Z,33.00
2019-05-10T06:19:46.865Z,31.77
2019-05-10T06:20:20.654Z,30.00
2019-05-10T06:20:54.482Z,28.92
2019-05-10T06:21:27.920Z,29.90
2019-05-10T06:22:04.627Z,30.43
2019-05-10T06:22:43.230Z,34.05
2019-05-10T06:23:13.349Z,32.05
2019-05-10T06:23:46.774Z,32.13
2019-05-10T06:24:20.560Z,32.38
2019-05-10T06:24:54.355Z,32.23
2019-05-10T06:25:39.247Z,31.48
2019-05-10T06:26:03.222Z,31.40
2019-05-10T06:26:37.036Z,33.58
2019-05-10T06:27:10.847Z,31.85
2019-05-10T06:27:44.637Z,33.05
2019-05-10T06:28:26.998Z,33.48
2019-05-10T06:29:04.172Z,32.00
2019-05-10T06:29:28.926Z,33.05
2019-05-10T06:30:02.707Z,31.80
2019-05-10T06:30:36.128Z,34.27
2019-05-10T06:31:09.919Z,30.27
2019-05-10T06:31:43.703Z,32.67
2019-05-10T06:32:17.508Z,30.65
2019-05-10T06:32:53.245Z,32.13
2019-05-10T06:33:26.383Z,30.97
2019-05-10T06:34:00.165Z,33.78
2019-05-10T06:34:38.821Z,31.00
2019-05-10T06:35:14.121Z,32.30
2019-05-10T06:35:44.461Z,30.43
2019-05-10T06:36:18.243Z,29.45
2019-05-10T06:36:52.034Z,29.63
2019-05-10T06:37:25.459Z,30.48
2019-05-10T06:37:59.273Z,30.92
2019-05-10T06:38:34.066Z,32.95
2019-05-10T06:39:08.707Z,29.98
2019-05-10T06:39:42.132Z,30.08
2019-05-10T06:40:16.595Z,29.52
2019-05-10T06:40:50.392Z,28.90
2019-05-10T06:41:24.185Z,28.83
2019-05-10T06:41:58.398Z,31.62
2019-05-10T06:42:34.565Z,31.20
2019-05-10T06:43:13.535Z,31.48
2019-05-10T06:43:45.804Z,30.25
2019-05-10T06:44:18.376Z,31.00
2019-05-10T06:44:52.161Z,30.65
2019-05-10T06:45:25.959Z,29.05
2019-05-10T06:45:59.752Z,31.90
2019-05-10T06:46:33.162Z,28.45
2019-05-10T06:47:08.426Z,31.27
2019-05-10T06:47:47.938Z,28.05
2019-05-10T06:48:25.786Z,28.35
2019-05-10T06:48:52.889Z,27.37
2019-05-10T06:49:26.697Z,25.27
2019-05-10T06:50:00.593Z,24.15
2019-05-10T06:50:34.375Z,24.40
2019-05-10T06:51:09.608Z,23.55
2019-05-10T06:51:49.064Z,25.92
2019-05-10T06:52:21.979Z,24.32
2019-05-10T06:52:54.098Z,25.62
2019-05-10T06:53:27.524Z,26.23
2019-05-10T06:54:01.389Z,25.68
2019-05-10T06:54:35.177Z,22.48
2019-05-10T06:55:08.980Z,23.65
2019-05-10T06:55:42.419Z,24.92
2019-05-10T06:56:16.211Z,24.92
2019-05-10T06:56:49.994Z,23.35
2019-05-10T06:57:23.788Z,20.57
2019-05-10T06:58:00.564Z,23.95
2019-05-10T06:58:36.396Z,23.18
2019-05-10T06:59:13.308Z,23.70
2019-05-10T06:59:43.516Z,23.85
2019-05-10T07:00:16.945Z,24.47
2019-05-10T07:00:50.748Z,20.35
2019-05-10T07:01:24.564Z,25.45
2019-05-10T07:01:58.354Z,23.22
2019-05-10T07:02:32.480Z,19.87
2019-05-10T07:03:06.767Z,18.55
2019-05-10T07:03:40.550Z,16.45
2019-05-10T07:04:14.340Z,20.25
2019-05-10T07:04:47.761Z,17.73
2019-05-10T07:05:21.548Z,20.10
2019-05-10T07:05:55.335Z,21.93
2019-05-10T07:06:29.151Z,20.75
2019-05-10T07:07:02.661Z,19.95
2019-05-10T07:07:43.961Z,19.80
2019-05-10T07:08:19.615Z,20.82
2019-05-10T07:08:51.631Z,22.60
2019-05-10T07:09:22.395Z,22.37
2019-05-10T07:10:12.377Z,23.25
2019-05-10T07:10:33.809Z,22.75
2019-05-10T07:11:07.064Z,20.20
2019-05-10T07:11:40.483Z,22.35
2019-05-10T07:12:15.336Z,21.93
2019-05-10T07:12:49.827Z,21.90
2019-05-10T07:13:23.648Z,21.02
2019-05-10T07:13:57.068Z,22.10
2019-05-10T07:14:30.860Z,22.20
2019-05-10T07:15:06.398Z,19.92
2019-05-10T07:15:42.374Z,20.32
2019-05-10T07:16:24.149Z,21.10
2019-05-10T07:16:51.120Z,21.12
2019-05-10T07:17:24.901Z,22.07
2019-05-10T07:17:58.719Z,20.10
2019-05-10T07:18:32.154Z,23.20
2019-05-10T07:19:05.944Z,21.50
2019-05-10T07:19:41.621Z,20.92
2019-05-10T07:20:15.167Z,20.23